sensor_id;sensor_type;location;lat;lon;timestamp;temperature;humidity
14053;DHT22;7101;51.600;7.310;2023-05-10T00:00:55;13.80;99.90
14053;DHT22;7101;51.600;7.310;2023-05-10T00:03:22;13.70;99.90
14053;DHT22;7101;51.600;7.310;2023-05-10T00:05:49;13.70;99.90
14053;DHT22;7101;51.600;7.310;2023-05-10T00:08:16;13.70;99.90
14053;DHT22;7101;51.600;7.310;2023-05-10T00:10:45;13.70;99.90
14053;DHT22;7101;51.600;7.310;2023-05-10T00:13:12;13.60;99.90
14053;DHT22;7101;51.600;7.310;2023-05-10T00:15:41;13.60;99.90
14053;DHT22;7101;51.600;7.310;2023-05-10T00:18:08;13.60;99.90
14053;DHT22;7101;51.600;7.310;2023-05-10T00:20:35;13.70;99.90
14053;DHT22;7101;51.600;7.310;2023-05-10T00:23:01;13.50;99.90
14053;DHT22;7101;51.600;7.310;2023-05-10T00:25:28;13.50;99.90
14053;DHT22;7101;51.600;7.310;2023-05-10T00:27:56;13.60;99.90
14053;DHT22;7101;51.600;7.310;2023-05-10T00:30:24;13.50;99.90
14053;DHT22;7101;51.600;7.310;2023-05-10T00:32:50;13.50;99.90
14053;DHT22;7101;51.600;7.310;2023-05-10T00:35:17;13.60;99.90
14053;DHT22;7101;51.600;7.310;2023-05-10T00:37:44;13.60;99.90
14053;DHT22;7101;51.600;7.310;2023-05-10T00:40:12;13.60;99.90
14053;DHT22;7101;51.600;7.310;2023-05-10T00:42:40;13.60;99.90
14053;DHT22;7101;51.600;7.310;2023-05-10T00:45:09;13.60;99.90
14053;DHT22;7101;51.600;7.310;2023-05-10T00:47:37;13.60;99.90
14053;DHT22;7101;51.600;7.310;2023-05-10T00:50:06;13.60;99.90
14053;DHT22;7101;51.600;7.310;2023-05-10T00:52:33;13.60;99.90
14053;DHT22;7101;51.600;7.310;2023-05-10T00:55:00;13.60;99.90
14053;DHT22;7101;51.600;7.310;2023-05-10T00:57:28;13.60;99.90
14053;DHT22;7101;51.600;7.310;2023-05-10T00:59:56;13.50;99.90
14053;DHT22;7101;51.600;7.310;2023-05-10T01:02:25;13.60;99.90
14053;DHT22;7101;51.600;7.310;2023-05-10T01:04:52;13.50;99.90
14053;DHT22;7101;51.600;7.310;2023-05-10T01:07:19;13.60;99.90
14053;DHT22;7101;51.600;7.310;2023-05-10T01:09:47;13.50;99.90
14053;DHT22;7101;51.600;7.310;2023-05-10T01:12:14;13.60;99.90
14053;DHT22;7101;51.600;7.310;2023-05-10T01:14:42;13.50;99.90
14053;DHT22;7101;51.600;7.310;2023-05-10T01:17:10;13.60;99.90
14053;DHT22;7101;51.600;7.310;2023-05-10T01:19:40;13.70;99.90
14053;DHT22;7101;51.600;7.310;2023-05-10T01:22:24;13.60;99.90
14053;DHT22;7101;51.600;7.310;2023-05-10T01:25:19;13.60;99.90
14053;DHT22;7101;51.600;7.310;2023-05-10T01:28:21;13.60;99.90
14053;DHT22;7101;51.600;7.310;2023-05-10T01:31:13;13.60;99.90
14053;DHT22;7101;51.600;7.310;2023-05-10T01:33:48;13.60;99.90
14053;DHT22;7101;51.600;7.310;2023-05-10T01:36:23;13.60;99.90
14053;DHT22;7101;51.600;7.310;2023-05-10T01:38:58;13.60;99.90
14053;DHT22;7101;51.600;7.310;2023-05-10T01:41:31;13.60;99.90
14053;DHT22;7101;51.600;7.310;2023-05-10T01:44:07;13.40;99.90
14053;DHT22;7101;51.600;7.310;2023-05-10T01:46:37;13.50;99.90
14053;DHT22;7101;51.600;7.310;2023-05-10T01:49:08;13.40;99.90
14053;DHT22;7101;51.600;7.310;2023-05-10T01:51:41;13.40;99.90
14053;DHT22;7101;51.600;7.310;2023-05-10T01:54:13;13.30;99.90
14053;DHT22;7101;51.600;7.310;2023-05-10T01:56:41;13.30;99.90
14053;DHT22;7101;51.600;7.310;2023-05-10T01:59:13;13.40;99.90
14053;DHT22;7101;51.600;7.310;2023-05-10T02:01:43;13.30;99.90
14053;DHT22;7101;51.600;7.310;2023-05-10T02:04:14;13.30;99.90
14053;DHT22;7101;51.600;7.310;2023-05-10T02:06:42;13.30;99.90
14053;DHT22;7101;51.600;7.310;2023-05-10T02:09:21;13.30;99.90
14053;DHT22;7101;51.600;7.310;2023-05-10T02:11:50;13.30;99.90
14053;DHT22;7101;51.600;7.310;2023-05-10T02:14:18;13.30;99.90
14053;DHT22;7101;51.600;7.310;2023-05-10T02:16:46;13.10;99.90
14053;DHT22;7101;51.600;7.310;2023-05-10T02:19:15;13.00;99.90
14053;DHT22;7101;51.600;7.310;2023-05-10T02:21:44;12.90;99.90
14053;DHT22;7101;51.600;7.310;2023-05-10T02:24:14;12.80;99.90
14053;DHT22;7101;51.600;7.310;2023-05-10T02:26:42;12.90;99.90
14053;DHT22;7101;51.600;7.310;2023-05-10T02:29:11;12.90;99.90
14053;DHT22;7101;51.600;7.310;2023-05-10T02:31:39;12.90;99.90
14053;DHT22;7101;51.600;7.310;2023-05-10T02:34:10;12.90;99.90
14053;DHT22;7101;51.600;7.310;2023-05-10T02:36:40;13.00;99.90
14053;DHT22;7101;51.600;7.310;2023-05-10T02:39:08;12.90;99.90
14053;DHT22;7101;51.600;7.310;2023-05-10T02:41:40;12.90;99.90
14053;DHT22;7101;51.600;7.310;2023-05-10T02:44:08;12.80;99.90
14053;DHT22;7101;51.600;7.310;2023-05-10T02:46:35;12.70;99.90
14053;DHT22;7101;51.600;7.310;2023-05-10T02:49:03;12.80;99.90
14053;DHT22;7101;51.600;7.310;2023-05-10T02:51:32;12.80;99.90
14053;DHT22;7101;51.600;7.310;2023-05-10T02:54:07;12.80;99.90
14053;DHT22;7101;51.600;7.310;2023-05-10T02:56:46;12.80;99.90
14053;DHT22;7101;51.600;7.310;2023-05-10T02:59:14;12.70;99.90
14053;DHT22;7101;51.600;7.310;2023-05-10T03:01:41;12.80;99.90
14053;DHT22;7101;51.600;7.310;2023-05-10T03:04:07;12.80;99.90
14053;DHT22;7101;51.600;7.310;2023-05-10T03:06:34;12.80;99.90
14053;DHT22;7101;51.600;7.310;2023-05-10T03:09:03;12.80;99.90
14053;DHT22;7101;51.600;7.310;2023-05-10T03:11:43;12.80;99.90
14053;DHT22;7101;51.600;7.310;2023-05-10T03:14:21;12.70;99.90
14053;DHT22;7101;51.600;7.310;2023-05-10T03:16:57;12.70;99.90
14053;DHT22;7101;51.600;7.310;2023-05-10T03:19:32;12.70;99.90
14053;DHT22;7101;51.600;7.310;2023-05-10T03:22:03;12.70;99.90
14053;DHT22;7101;51.600;7.310;2023-05-10T03:24:33;12.70;99.90
14053;DHT22;7101;51.600;7.310;2023-05-10T03:27:03;12.70;99.90
14053;DHT22;7101;51.600;7.310;2023-05-10T03:29:31;12.70;99.90
14053;DHT22;7101;51.600;7.310;2023-05-10T03:31:59;12.70;99.90
14053;DHT22;7101;51.600;7.310;2023-05-10T03:34:26;12.80;99.90
14053;DHT22;7101;51.600;7.310;2023-05-10T03:36:58;12.70;99.90
14053;DHT22;7101;51.600;7.310;2023-05-10T03:39:25;12.70;99.90
14053;DHT22;7101;51.600;7.310;2023-05-10T03:41:53;12.80;99.90
14053;DHT22;7101;51.600;7.310;2023-05-10T03:44:20;12.80;99.90
14053;DHT22;7101;51.600;7.310;2023-05-10T03:46:47;12.90;99.90
14053;DHT22;7101;51.600;7.310;2023-05-10T03:49:16;12.90;99.90
14053;DHT22;7101;51.600;7.310;2023-05-10T03:51:43;12.90;99.90
14053;DHT22;7101;51.600;7.310;2023-05-10T03:54:10;12.90;99.90
14053;DHT22;7101;51.600;7.310;2023-05-10T03:56:37;12.90;99.90
14053;DHT22;7101;51.600;7.310;2023-05-10T03:59:05;12.90;99.90
14053;DHT22;7101;51.600;7.310;2023-05-10T04:01:33;13.00;99.90
14053;DHT22;7101;51.600;7.310;2023-05-10T04:03:59;13.00;99.90
14053;DHT22;7101;51.600;7.310;2023-05-10T04:06:27;13.00;99.90
14053;DHT22;7101;51.600;7.310;2023-05-10T04:08:56;13.00;99.90
14053;DHT22;7101;51.600;7.310;2023-05-10T04:11:25;13.00;99.90
14053;DHT22;7101;51.600;7.310;2023-05-10T04:13:52;13.00;99.90
14053;DHT22;7101;51.600;7.310;2023-05-10T04:16:20;13.00;99.90
14053;DHT22;7101;51.600;7.310;2023-05-10T04:18:51;13.00;99.90
14053;DHT22;7101;51.600;7.310;2023-05-10T04:21:18;13.00;99.90
14053;DHT22;7101;51.600;7.310;2023-05-10T04:23:46;13.00;99.90
14053;DHT22;7101;51.600;7.310;2023-05-10T04:26:13;13.10;99.90
14053;DHT22;7101;51.600;7.310;2023-05-10T04:28:42;13.10;99.90
14053;DHT22;7101;51.600;7.310;2023-05-10T04:31:10;13.00;99.90
14053;DHT22;7101;51.600;7.310;2023-05-10T04:33:38;13.10;99.90
14053;DHT22;7101;51.600;7.310;2023-05-10T04:36:06;13.10;99.90
14053;DHT22;7101;51.600;7.310;2023-05-10T04:38:33;13.10;99.90
14053;DHT22;7101;51.600;7.310;2023-05-10T04:41:09;13.10;99.90
14053;DHT22;7101;51.600;7.310;2023-05-10T04:43:36;13.10;99.90
14053;DHT22;7101;51.600;7.310;2023-05-10T04:46:05;13.10;99.90
14053;DHT22;7101;51.600;7.310;2023-05-10T04:48:32;13.10;99.90
14053;DHT22;7101;51.600;7.310;2023-05-10T04:51:01;13.20;99.90
14053;DHT22;7101;51.600;7.310;2023-05-10T04:53:29;13.20;99.90
14053;DHT22;7101;51.600;7.310;2023-05-10T04:55:56;13.30;99.90
14053;DHT22;7101;51.600;7.310;2023-05-10T04:58:24;13.30;99.90
14053;DHT22;7101;51.600;7.310;2023-05-10T05:00:51;13.20;99.90
14053;DHT22;7101;51.600;7.310;2023-05-10T05:03:22;13.30;99.90
14053;DHT22;7101;51.600;7.310;2023-05-10T05:05:52;13.20;99.90
14053;DHT22;7101;51.600;7.310;2023-05-10T05:08:23;13.20;99.90
14053;DHT22;7101;51.600;7.310;2023-05-10T05:10:50;13.20;99.90
14053;DHT22;7101;51.600;7.310;2023-05-10T05:13:19;13.30;99.90
14053;DHT22;7101;51.600;7.310;2023-05-10T05:15:48;13.30;99.90
14053;DHT22;7101;51.600;7.310;2023-05-10T05:18:15;13.20;99.90
14053;DHT22;7101;51.600;7.310;2023-05-10T05:20:46;13.20;99.90
14053;DHT22;7101;51.600;7.310;2023-05-10T05:23:14;13.20;99.90
14053;DHT22;7101;51.600;7.310;2023-05-10T05:25:44;13.30;99.90
14053;DHT22;7101;51.600;7.310;2023-05-10T05:28:12;13.30;99.90
14053;DHT22;7101;51.600;7.310;2023-05-10T05:30:39;13.30;99.90
14053;DHT22;7101;51.600;7.310;2023-05-10T05:33:07;13.40;99.90
14053;DHT22;7101;51.600;7.310;2023-05-10T05:35:34;13.30;99.90
14053;DHT22;7101;51.600;7.310;2023-05-10T05:38:03;13.50;99.90
14053;DHT22;7101;51.600;7.310;2023-05-10T05:40:30;13.40;99.90
14053;DHT22;7101;51.600;7.310;2023-05-10T05:42:59;13.50;99.90
14053;DHT22;7101;51.600;7.310;2023-05-10T05:45:26;13.50;99.90
14053;DHT22;7101;51.600;7.310;2023-05-10T05:47:53;13.50;99.90
14053;DHT22;7101;51.600;7.310;2023-05-10T05:50:20;13.50;99.90
14053;DHT22;7101;51.600;7.310;2023-05-10T05:52:49;13.60;99.90
14053;DHT22;7101;51.600;7.310;2023-05-10T05:55:16;13.80;99.90
14053;DHT22;7101;51.600;7.310;2023-05-10T05:57:43;13.80;99.90
14053;DHT22;7101;51.600;7.310;2023-05-10T06:00:12;13.90;99.90
14053;DHT22;7101;51.600;7.310;2023-05-10T06:02:39;13.80;99.90
14053;DHT22;7101;51.600;7.310;2023-05-10T06:05:07;13.80;99.90
14053;DHT22;7101;51.600;7.310;2023-05-10T06:07:34;13.80;99.90
14053;DHT22;7101;51.600;7.310;2023-05-10T06:10:02;13.80;99.90
14053;DHT22;7101;51.600;7.310;2023-05-10T06:12:31;13.70;99.90
14053;DHT22;7101;51.600;7.310;2023-05-10T06:14:59;13.70;99.90
14053;DHT22;7101;51.600;7.310;2023-05-10T06:17:28;13.70;99.90
14053;DHT22;7101;51.600;7.310;2023-05-10T06:19:54;13.70;99.90
14053;DHT22;7101;51.600;7.310;2023-05-10T06:22:23;13.70;99.90
14053;DHT22;7101;51.600;7.310;2023-05-10T06:24:52;13.90;99.90
14053;DHT22;7101;51.600;7.310;2023-05-10T06:27:19;14.00;99.90
14053;DHT22;7101;51.600;7.310;2023-05-10T06:29:47;14.10;99.90
14053;DHT22;7101;51.600;7.310;2023-05-10T06:32:14;14.10;99.90
14053;DHT22;7101;51.600;7.310;2023-05-10T06:34:43;14.10;99.90
14053;DHT22;7101;51.600;7.310;2023-05-10T06:37:11;14.20;99.90
14053;DHT22;7101;51.600;7.310;2023-05-10T06:39:39;14.20;99.90
14053;DHT22;7101;51.600;7.310;2023-05-10T06:42:06;14.10;99.90
14053;DHT22;7101;51.600;7.310;2023-05-10T06:44:34;14.30;99.90
14053;DHT22;7101;51.600;7.310;2023-05-10T06:47:02;14.30;99.90
14053;DHT22;7101;51.600;7.310;2023-05-10T06:49:30;14.30;99.90
14053;DHT22;7101;51.600;7.310;2023-05-10T06:51:58;14.30;99.90
14053;DHT22;7101;51.600;7.310;2023-05-10T06:54:26;14.40;99.90
14053;DHT22;7101;51.600;7.310;2023-05-10T06:56:53;14.60;99.90
14053;DHT22;7101;51.600;7.310;2023-05-10T06:59:20;14.80;99.90
14053;DHT22;7101;51.600;7.310;2023-05-10T07:01:47;15.10;99.90
14053;DHT22;7101;51.600;7.310;2023-05-10T07:04:14;15.20;99.90
14053;DHT22;7101;51.600;7.310;2023-05-10T07:06:41;15.50;99.90
14053;DHT22;7101;51.600;7.310;2023-05-10T07:09:10;15.70;99.90
14053;DHT22;7101;51.600;7.310;2023-05-10T07:11:37;16.20;99.90
14053;DHT22;7101;51.600;7.310;2023-05-10T07:14:04;16.90;99.90
14053;DHT22;7101;51.600;7.310;2023-05-10T07:16:30;17.40;99.90
14053;DHT22;7101;51.600;7.310;2023-05-10T07:18:57;17.70;99.90
14053;DHT22;7101;51.600;7.310;2023-05-10T07:21:25;18.20;99.90
14053;DHT22;7101;51.600;7.310;2023-05-10T07:23:54;18.40;99.90
14053;DHT22;7101;51.600;7.310;2023-05-10T07:26:23;18.10;99.90
14053;DHT22;7101;51.600;7.310;2023-05-10T07:28:50;17.60;99.90
14053;DHT22;7101;51.600;7.310;2023-05-10T07:31:18;17.30;99.90
14053;DHT22;7101;51.600;7.310;2023-05-10T07:33:45;17.40;99.90
14053;DHT22;7101;51.600;7.310;2023-05-10T07:36:13;17.70;99.90
14053;DHT22;7101;51.600;7.310;2023-05-10T07:38:41;18.50;99.90
14053;DHT22;7101;51.600;7.310;2023-05-10T07:41:08;19.30;99.90
14053;DHT22;7101;51.600;7.310;2023-05-10T07:43:36;20.70;99.90
14053;DHT22;7101;51.600;7.310;2023-05-10T07:46:05;21.30;99.90
14053;DHT22;7101;51.600;7.310;2023-05-10T07:48:42;21.00;99.90
14053;DHT22;7101;51.600;7.310;2023-05-10T07:51:10;20.80;99.90
14053;DHT22;7101;51.600;7.310;2023-05-10T07:53:38;21.10;99.90
14053;DHT22;7101;51.600;7.310;2023-05-10T07:56:21;21.00;99.90
14053;DHT22;7101;51.600;7.310;2023-05-10T07:58:49;21.80;99.90
14053;DHT22;7101;51.600;7.310;2023-05-10T08:01:16;22.50;99.90
14053;DHT22;7101;51.600;7.310;2023-05-10T08:03:43;23.10;99.90
14053;DHT22;7101;51.600;7.310;2023-05-10T08:06:10;22.20;99.90
14053;DHT22;7101;51.600;7.310;2023-05-10T08:08:37;21.40;99.90
14053;DHT22;7101;51.600;7.310;2023-05-10T08:11:04;21.20;99.90
14053;DHT22;7101;51.600;7.310;2023-05-10T08:13:31;21.30;99.90
14053;DHT22;7101;51.600;7.310;2023-05-10T08:15:59;21.50;99.90
14053;DHT22;7101;51.600;7.310;2023-05-10T08:18:26;21.10;99.90
14053;DHT22;7101;51.600;7.310;2023-05-10T08:20:54;20.70;99.90
14053;DHT22;7101;51.600;7.310;2023-05-10T08:23:21;19.90;99.90
14053;DHT22;7101;51.600;7.310;2023-05-10T08:25:48;19.00;99.90
14053;DHT22;7101;51.600;7.310;2023-05-10T08:28:14;18.60;99.90
14053;DHT22;7101;51.600;7.310;2023-05-10T08:30:42;18.60;99.90
14053;DHT22;7101;51.600;7.310;2023-05-10T08:33:11;19.30;99.90
14053;DHT22;7101;51.600;7.310;2023-05-10T08:35:38;20.70;99.90
14053;DHT22;7101;51.600;7.310;2023-05-10T08:38:05;21.70;99.90
14053;DHT22;7101;51.600;7.310;2023-05-10T08:40:32;22.00;99.90
14053;DHT22;7101;51.600;7.310;2023-05-10T08:43:07;21.20;99.90
14053;DHT22;7101;51.600;7.310;2023-05-10T08:45:37;20.60;99.90
14053;DHT22;7101;51.600;7.310;2023-05-10T08:48:06;20.10;99.90
14053;DHT22;7101;51.600;7.310;2023-05-10T08:50:35;19.90;99.90
14053;DHT22;7101;51.600;7.310;2023-05-10T08:53:05;20.40;99.90
14053;DHT22;7101;51.600;7.310;2023-05-10T08:55:32;20.80;99.90
14053;DHT22;7101;51.600;7.310;2023-05-10T08:58:02;21.80;99.90
14053;DHT22;7101;51.600;7.310;2023-05-10T09:00:29;21.30;99.90
14053;DHT22;7101;51.600;7.310;2023-05-10T09:02:57;20.50;99.90
14053;DHT22;7101;51.600;7.310;2023-05-10T09:05:25;20.20;99.90
14053;DHT22;7101;51.600;7.310;2023-05-10T09:07:55;19.70;99.90
14053;DHT22;7101;51.600;7.310;2023-05-10T09:10:22;19.10;99.90
14053;DHT22;7101;51.600;7.310;2023-05-10T09:12:53;18.90;99.90
14053;DHT22;7101;51.600;7.310;2023-05-10T09:15:22;18.70;99.90
14053;DHT22;7101;51.600;7.310;2023-05-10T09:17:50;18.50;99.90
14053;DHT22;7101;51.600;7.310;2023-05-10T09:20:17;18.60;99.90
14053;DHT22;7101;51.600;7.310;2023-05-10T09:22:44;18.80;99.90
14053;DHT22;7101;51.600;7.310;2023-05-10T09:25:14;18.90;99.90
14053;DHT22;7101;51.600;7.310;2023-05-10T09:27:45;18.90;99.90
14053;DHT22;7101;51.600;7.310;2023-05-10T09:30:16;19.10;99.90
14053;DHT22;7101;51.600;7.310;2023-05-10T09:32:44;18.90;99.90
14053;DHT22;7101;51.600;7.310;2023-05-10T09:35:13;19.50;99.90
14053;DHT22;7101;51.600;7.310;2023-05-10T09:37:41;20.30;99.90
14053;DHT22;7101;51.600;7.310;2023-05-10T09:40:14;20.80;99.90
14053;DHT22;7101;51.600;7.310;2023-05-10T09:42:42;21.50;99.90
14053;DHT22;7101;51.600;7.310;2023-05-10T09:45:09;21.90;99.90
14053;DHT22;7101;51.600;7.310;2023-05-10T09:47:36;21.70;99.90
14053;DHT22;7101;51.600;7.310;2023-05-10T09:50:04;22.10;99.90
14053;DHT22;7101;51.600;7.310;2023-05-10T09:52:31;21.80;99.90
14053;DHT22;7101;51.600;7.310;2023-05-10T09:55:14;21.70;99.90
14053;DHT22;7101;51.600;7.310;2023-05-10T09:57:41;21.70;99.90
14053;DHT22;7101;51.600;7.310;2023-05-10T10:00:09;21.10;99.90
14053;DHT22;7101;51.600;7.310;2023-05-10T10:02:36;21.20;99.90
14053;DHT22;7101;51.600;7.310;2023-05-10T10:05:03;21.30;99.90
14053;DHT22;7101;51.600;7.310;2023-05-10T10:07:30;21.30;99.90
14053;DHT22;7101;51.600;7.310;2023-05-10T10:09:58;21.30;99.90
14053;DHT22;7101;51.600;7.310;2023-05-10T10:12:27;21.00;99.90
14053;DHT22;7101;51.600;7.310;2023-05-10T10:14:54;21.20;99.90
14053;DHT22;7101;51.600;7.310;2023-05-10T10:17:24;21.60;99.90
14053;DHT22;7101;51.600;7.310;2023-05-10T10:19:51;21.30;99.90
14053;DHT22;7101;51.600;7.310;2023-05-10T10:22:18;21.00;99.90
14053;DHT22;7101;51.600;7.310;2023-05-10T10:24:45;21.10;99.90
14053;DHT22;7101;51.600;7.310;2023-05-10T10:27:20;21.20;99.90
14053;DHT22;7101;51.600;7.310;2023-05-10T10:30:01;20.80;99.90
14053;DHT22;7101;51.600;7.310;2023-05-10T10:32:35;19.90;99.90
14053;DHT22;7101;51.600;7.310;2023-05-10T10:35:08;19.10;99.90
14053;DHT22;7101;51.600;7.310;2023-05-10T10:37:43;18.10;99.90
14053;DHT22;7101;51.600;7.310;2023-05-10T10:40:25;17.40;99.90
14053;DHT22;7101;51.600;7.310;2023-05-10T10:42:52;17.30;99.90
14053;DHT22;7101;51.600;7.310;2023-05-10T10:45:24;17.00;99.90
14053;DHT22;7101;51.600;7.310;2023-05-10T10:48:21;17.00;99.90
14053;DHT22;7101;51.600;7.310;2023-05-10T10:50:56;17.00;99.90
14053;DHT22;7101;51.600;7.310;2023-05-10T10:53:26;16.90;99.90
14053;DHT22;7101;51.600;7.310;2023-05-10T10:56:04;16.90;99.90
14053;DHT22;7101;51.600;7.310;2023-05-10T10:58:32;16.80;99.90
14053;DHT22;7101;51.600;7.310;2023-05-10T11:01:12;16.90;99.90
14053;DHT22;7101;51.600;7.310;2023-05-10T11:03:39;17.20;99.90
14053;DHT22;7101;51.600;7.310;2023-05-10T11:06:06;17.60;99.90
14053;DHT22;7101;51.600;7.310;2023-05-10T11:08:39;17.90;99.90
14053;DHT22;7101;51.600;7.310;2023-05-10T11:11:07;18.20;99.90
14053;DHT22;7101;51.600;7.310;2023-05-10T11:13:38;18.20;99.90
14053;DHT22;7101;51.600;7.310;2023-05-10T11:16:19;18.50;99.90
14053;DHT22;7101;51.600;7.310;2023-05-10T11:18:57;18.50;99.90
14053;DHT22;7101;51.600;7.310;2023-05-10T11:21:24;18.50;99.90
14053;DHT22;7101;51.600;7.310;2023-05-10T11:23:53;18.30;99.90
14053;DHT22;7101;51.600;7.310;2023-05-10T11:26:23;18.40;99.90
14053;DHT22;7101;51.600;7.310;2023-05-10T11:28:52;18.80;99.90
14053;DHT22;7101;51.600;7.310;2023-05-10T11:31:23;19.00;99.90
14053;DHT22;7101;51.600;7.310;2023-05-10T11:33:53;19.30;99.90
14053;DHT22;7101;51.600;7.310;2023-05-10T11:36:23;19.20;99.90
14053;DHT22;7101;51.600;7.310;2023-05-10T11:38:51;18.90;99.90
14053;DHT22;7101;51.600;7.310;2023-05-10T11:41:19;18.40;99.90
14053;DHT22;7101;51.600;7.310;2023-05-10T11:43:48;18.30;99.90
14053;DHT22;7101;51.600;7.310;2023-05-10T11:46:16;18.50;99.90
14053;DHT22;7101;51.600;7.310;2023-05-10T11:48:48;18.50;99.90
14053;DHT22;7101;51.600;7.310;2023-05-10T11:51:20;18.70;99.90
14053;DHT22;7101;51.600;7.310;2023-05-10T11:53:47;18.90;99.90
14053;DHT22;7101;51.600;7.310;2023-05-10T11:56:15;19.10;99.90
14053;DHT22;7101;51.600;7.310;2023-05-10T11:58:42;19.30;99.90
14053;DHT22;7101;51.600;7.310;2023-05-10T12:01:09;19.30;99.90
14053;DHT22;7101;51.600;7.310;2023-05-10T12:03:37;19.10;99.90
14053;DHT22;7101;51.600;7.310;2023-05-10T12:06:07;19.30;99.90
14053;DHT22;7101;51.600;7.310;2023-05-10T12:08:34;19.50;99.90
14053;DHT22;7101;51.600;7.310;2023-05-10T12:11:05;19.60;99.90
14053;DHT22;7101;51.600;7.310;2023-05-10T12:13:36;19.50;99.90
14053;DHT22;7101;51.600;7.310;2023-05-10T12:16:12;19.70;99.90
14053;DHT22;7101;51.600;7.310;2023-05-10T12:18:40;20.10;99.90
14053;DHT22;7101;51.600;7.310;2023-05-10T12:21:09;20.40;99.90
14053;DHT22;7101;51.600;7.310;2023-05-10T12:23:36;20.40;99.90
14053;DHT22;7101;51.600;7.310;2023-05-10T12:26:03;20.40;99.90
14053;DHT22;7101;51.600;7.310;2023-05-10T12:28:30;20.00;99.90
14053;DHT22;7101;51.600;7.310;2023-05-10T12:30:58;19.80;99.90
14053;DHT22;7101;51.600;7.310;2023-05-10T12:33:25;19.90;99.90
14053;DHT22;7101;51.600;7.310;2023-05-10T12:35:53;19.80;99.90
14053;DHT22;7101;51.600;7.310;2023-05-10T12:38:26;19.90;99.90
14053;DHT22;7101;51.600;7.310;2023-05-10T12:40:55;20.10;99.90
14053;DHT22;7101;51.600;7.310;2023-05-10T12:43:22;19.60;99.90
14053;DHT22;7101;51.600;7.310;2023-05-10T12:45:50;19.10;99.90
14053;DHT22;7101;51.600;7.310;2023-05-10T12:48:17;18.70;99.90
14053;DHT22;7101;51.600;7.310;2023-05-10T12:50:45;18.90;99.90
14053;DHT22;7101;51.600;7.310;2023-05-10T12:53:14;19.10;99.90
14053;DHT22;7101;51.600;7.310;2023-05-10T12:55:43;19.30;99.90
14053;DHT22;7101;51.600;7.310;2023-05-10T12:58:10;19.30;99.90
14053;DHT22;7101;51.600;7.310;2023-05-10T13:00:37;19.20;99.90
14053;DHT22;7101;51.600;7.310;2023-05-10T13:03:04;19.40;99.90
14053;DHT22;7101;51.600;7.310;2023-05-10T13:05:31;19.10;99.90
14053;DHT22;7101;51.600;7.310;2023-05-10T13:07:58;18.90;99.90
14053;DHT22;7101;51.600;7.310;2023-05-10T13:10:25;19.10;99.90
14053;DHT22;7101;51.600;7.310;2023-05-10T13:12:53;19.10;99.90
14053;DHT22;7101;51.600;7.310;2023-05-10T13:15:20;19.40;99.90
14053;DHT22;7101;51.600;7.310;2023-05-10T13:17:47;19.40;99.90
14053;DHT22;7101;51.600;7.310;2023-05-10T13:20:15;19.50;99.90
14053;DHT22;7101;51.600;7.310;2023-05-10T13:22:43;19.80;99.90
14053;DHT22;7101;51.600;7.310;2023-05-10T13:25:10;19.90;99.90
14053;DHT22;7101;51.600;7.310;2023-05-10T13:27:39;19.30;99.90
14053;DHT22;7101;51.600;7.310;2023-05-10T13:30:08;19.20;99.90
14053;DHT22;7101;51.600;7.310;2023-05-10T13:32:37;19.10;99.90
14053;DHT22;7101;51.600;7.310;2023-05-10T13:35:05;19.10;99.90
14053;DHT22;7101;51.600;7.310;2023-05-10T13:37:32;19.30;99.90
14053;DHT22;7101;51.600;7.310;2023-05-10T13:40:01;19.70;99.90
14053;DHT22;7101;51.600;7.310;2023-05-10T13:42:29;19.40;99.90
14053;DHT22;7101;51.600;7.310;2023-05-10T13:44:57;19.70;99.90
14053;DHT22;7101;51.600;7.310;2023-05-10T13:47:25;20.30;99.90
14053;DHT22;7101;51.600;7.310;2023-05-10T13:49:52;20.60;99.90
14053;DHT22;7101;51.600;7.310;2023-05-10T13:52:20;20.50;99.90
14053;DHT22;7101;51.600;7.310;2023-05-10T13:54:46;20.80;99.90
14053;DHT22;7101;51.600;7.310;2023-05-10T13:57:13;20.90;99.90
14053;DHT22;7101;51.600;7.310;2023-05-10T13:59:42;21.20;99.90
14053;DHT22;7101;51.600;7.310;2023-05-10T14:02:09;20.90;99.90
14053;DHT22;7101;51.600;7.310;2023-05-10T14:04:37;21.10;99.90
14053;DHT22;7101;51.600;7.310;2023-05-10T14:07:04;20.90;99.90
14053;DHT22;7101;51.600;7.310;2023-05-10T14:09:31;21.00;99.90
14053;DHT22;7101;51.600;7.310;2023-05-10T14:11:58;20.60;99.90
14053;DHT22;7101;51.600;7.310;2023-05-10T14:14:26;20.50;99.90
14053;DHT22;7101;51.600;7.310;2023-05-10T14:16:54;20.90;99.90
14053;DHT22;7101;51.600;7.310;2023-05-10T14:19:21;21.10;99.90
14053;DHT22;7101;51.600;7.310;2023-05-10T14:21:49;21.20;99.90
14053;DHT22;7101;51.600;7.310;2023-05-10T14:24:17;21.30;99.90
14053;DHT22;7101;51.600;7.310;2023-05-10T14:26:44;21.20;99.90
14053;DHT22;7101;51.600;7.310;2023-05-10T14:29:11;21.30;99.90
14053;DHT22;7101;51.600;7.310;2023-05-10T14:31:37;21.10;99.90
14053;DHT22;7101;51.600;7.310;2023-05-10T14:34:04;20.70;99.90
14053;DHT22;7101;51.600;7.310;2023-05-10T14:36:32;21.00;99.90
14053;DHT22;7101;51.600;7.310;2023-05-10T14:39:00;21.30;99.90
14053;DHT22;7101;51.600;7.310;2023-05-10T14:41:27;21.40;99.90
14053;DHT22;7101;51.600;7.310;2023-05-10T14:43:55;21.50;99.90
14053;DHT22;7101;51.600;7.310;2023-05-10T14:46:22;21.30;99.90
14053;DHT22;7101;51.600;7.310;2023-05-10T14:48:49;21.20;99.90
14053;DHT22;7101;51.600;7.310;2023-05-10T14:51:16;21.10;99.90
14053;DHT22;7101;51.600;7.310;2023-05-10T14:53:44;21.40;99.90
14053;DHT22;7101;51.600;7.310;2023-05-10T14:56:12;21.70;99.90
14053;DHT22;7101;51.600;7.310;2023-05-10T14:58:39;21.30;99.90
14053;DHT22;7101;51.600;7.310;2023-05-10T15:01:07;21.40;99.90
14053;DHT22;7101;51.600;7.310;2023-05-10T15:03:34;21.40;99.90
14053;DHT22;7101;51.600;7.310;2023-05-10T15:06:01;21.30;99.90
14053;DHT22;7101;51.600;7.310;2023-05-10T15:08:28;21.10;99.90
14053;DHT22;7101;51.600;7.310;2023-05-10T15:10:57;21.20;99.90
14053;DHT22;7101;51.600;7.310;2023-05-10T15:13:26;20.90;99.90
14053;DHT22;7101;51.600;7.310;2023-05-10T15:15:53;20.60;99.90
14053;DHT22;7101;51.600;7.310;2023-05-10T15:18:20;20.20;99.90
14053;DHT22;7101;51.600;7.310;2023-05-10T15:20:47;20.20;99.90
14053;DHT22;7101;51.600;7.310;2023-05-10T15:23:14;19.90;99.90
14053;DHT22;7101;51.600;7.310;2023-05-10T15:25:41;19.20;99.90
14053;DHT22;7101;51.600;7.310;2023-05-10T15:28:09;19.10;99.90
14053;DHT22;7101;51.600;7.310;2023-05-10T15:30:37;19.10;99.90
14053;DHT22;7101;51.600;7.310;2023-05-10T15:33:04;18.90;99.90
14053;DHT22;7101;51.600;7.310;2023-05-10T15:35:31;18.70;99.90
14053;DHT22;7101;51.600;7.310;2023-05-10T15:38:01;18.60;99.90
14053;DHT22;7101;51.600;7.310;2023-05-10T15:40:27;18.60;99.90
14053;DHT22;7101;51.600;7.310;2023-05-10T15:42:55;18.60;99.90
14053;DHT22;7101;51.600;7.310;2023-05-10T15:45:22;18.60;99.90
14053;DHT22;7101;51.600;7.310;2023-05-10T15:47:51;18.20;99.90
14053;DHT22;7101;51.600;7.310;2023-05-10T15:50:18;18.20;99.90
14053;DHT22;7101;51.600;7.310;2023-05-10T15:52:46;18.30;99.90
14053;DHT22;7101;51.600;7.310;2023-05-10T15:55:12;18.60;99.90